createdAt,value
2022-12-08T00:01:50.347Z,2.38
2022-12-08T00:05:10.906Z,2.39
2022-12-08T00:08:32.085Z,2.34
2022-12-08T00:11:34.229Z,2.24
2022-12-08T00:14:39.683Z,2.23
2022-12-08T00:17:41.539Z,2.13
2022-12-08T00:20:43.202Z,2.21
2022-12-08T00:23:44.879Z,2.21
2022-12-08T00:26:47.638Z,2.22
2022-12-08T00:29:49.194Z,2.32
2022-12-08T00:32:50.844Z,2.31
2022-12-08T00:35:52.552Z,2.13
2022-12-08T00:38:54.768Z,2.11
2022-12-08T00:42:15.307Z,2.02
2022-12-08T00:45:17.277Z,2.02
2022-12-08T00:48:19.028Z,2.11
2022-12-08T00:51:21.389Z,2.10
2022-12-08T00:54:24.337Z,2.21
2022-12-08T00:57:26.017Z,2.18
2022-12-08T01:00:27.837Z,2.13
2022-12-08T01:03:30.535Z,2.13
2022-12-08T01:06:32.721Z,2.20
2022-12-08T01:09:34.665Z,2.31
2022-12-08T01:12:36.421Z,2.29
2022-12-08T01:15:38.347Z,2.15
2022-12-08T01:18:40.076Z,2.14
2022-12-08T01:21:42.913Z,2.08
2022-12-08T01:24:44.481Z,1.94
2022-12-08T01:27:46.094Z,1.89
2022-12-08T01:30:47.740Z,1.89
2022-12-08T01:33:51.254Z,1.85
2022-12-08T01:36:53.085Z,1.79
2022-12-08T01:39:54.962Z,1.71
2022-12-08T01:42:56.797Z,1.59
2022-12-08T01:45:58.705Z,1.57
2022-12-08T01:49:08.689Z,1.51
2022-12-08T01:52:37.385Z,1.48
2022-12-08T01:55:59.346Z,1.44
2022-12-08T01:59:01.300Z,1.46
2022-12-08T02:02:03.715Z,1.50
2022-12-08T02:05:07.076Z,1.47
2022-12-08T02:08:12.696Z,1.49
2022-12-08T02:11:14.463Z,1.53
2022-12-08T02:14:16.332Z,1.58
2022-12-08T02:17:34.974Z,1.61
2022-12-08T02:20:56.934Z,1.66
2022-12-08T02:24:15.048Z,1.67
2022-12-08T02:27:38.821Z,1.71
2022-12-08T02:31:18.427Z,1.72
2022-12-08T02:34:47.914Z,1.64
2022-12-08T02:37:58.335Z,1.65
2022-12-08T02:41:05.489Z,1.62
2022-12-08T02:44:07.103Z,1.56
2022-12-08T02:47:14.001Z,1.54
2022-12-08T02:50:15.921Z,1.59
2022-12-08T02:53:17.639Z,1.61
2022-12-08T02:56:41.067Z,1.65
2022-12-08T02:59:57.957Z,1.73
2022-12-08T03:03:19.582Z,1.80
2022-12-08T03:06:48.359Z,1.91
2022-12-08T03:10:11.258Z,1.89
2022-12-08T03:13:28.323Z,2.02
2022-12-08T03:16:32.230Z,1.98
2022-12-08T03:19:38.906Z,1.97
2022-12-08T03:22:41.987Z,2.01
2022-12-08T03:25:50.869Z,1.92
2022-12-08T03:28:52.827Z,2.01
2022-12-08T03:31:58.242Z,1.91
2022-12-08T03:35:04.959Z,1.98
2022-12-08T03:38:10.722Z,2.00
2022-12-08T03:41:21.813Z,1.94
2022-12-08T03:44:23.263Z,1.91
2022-12-08T03:47:25.134Z,1.93
2022-12-08T03:50:27.299Z,1.85
2022-12-08T03:53:29.027Z,1.87
2022-12-08T03:56:33.597Z,1.92
2022-12-08T03:59:35.139Z,1.94
2022-12-08T04:02:37.088Z,1.90
2022-12-08T04:05:39.128Z,1.88
2022-12-08T04:08:40.977Z,1.91
2022-12-08T04:11:42.645Z,1.97
2022-12-08T04:14:44.196Z,2.06
2022-12-08T04:17:46.009Z,1.98
2022-12-08T04:20:48.021Z,1.99
2022-12-08T04:23:50.022Z,1.96
2022-12-08T04:26:51.739Z,1.81
2022-12-08T04:29:53.459Z,1.77
2022-12-08T04:32:55.153Z,1.78
2022-12-08T04:35:56.752Z,1.72
2022-12-08T04:38:58.453Z,1.71
2022-12-08T04:42:00.038Z,1.77
2022-12-08T04:45:01.720Z,1.77
2022-12-08T04:48:03.470Z,1.81
2022-12-08T04:51:06.353Z,1.88
2022-12-08T04:54:08.194Z,1.83
2022-12-08T04:57:10.059Z,1.86
2022-12-08T05:00:12.566Z,1.85
2022-12-08T05:03:14.977Z,1.90
2022-12-08T05:06:16.847Z,1.87
2022-12-08T05:09:18.507Z,1.79
2022-12-08T05:12:20.200Z,1.83
2022-12-08T05:15:22.053Z,1.76
2022-12-08T05:18:23.841Z,1.61
2022-12-08T05:21:25.684Z,1.59
2022-12-08T05:24:27.259Z,1.57
2022-12-08T05:27:29.141Z,1.48
2022-12-08T05:30:30.930Z,1.53
2022-12-08T05:33:32.667Z,1.67
2022-12-08T05:36:34.450Z,1.61
2022-12-08T05:39:36.247Z,1.55
2022-12-08T05:42:38.077Z,1.48
2022-12-08T05:45:39.924Z,1.44
2022-12-08T05:48:41.876Z,1.47
2022-12-08T05:51:43.869Z,1.52
2022-12-08T05:54:45.848Z,1.59
2022-12-08T05:57:47.617Z,1.55
2022-12-08T06:00:50.612Z,1.56
2022-12-08T06:03:52.845Z,1.60
2022-12-08T06:06:54.582Z,1.61
2022-12-08T06:09:56.506Z,1.64
2022-12-08T06:12:58.449Z,1.71
2022-12-08T06:16:05.657Z,1.69
2022-12-08T06:19:07.712Z,1.70
2022-12-08T06:22:09.554Z,1.74
2022-12-08T06:25:11.413Z,1.70
2022-12-08T06:28:13.370Z,1.76
2022-12-08T06:31:21.198Z,1.79
2022-12-08T06:34:23.131Z,1.66
2022-12-08T06:37:25.175Z,1.66
2022-12-08T06:40:26.951Z,1.66
2022-12-08T06:43:28.685Z,1.65
2022-12-08T06:46:30.466Z,1.66
2022-12-08T06:49:32.135Z,1.62
2022-12-08T06:52:37.696Z,1.56
2022-12-08T06:55:59.838Z,1.49
2022-12-08T06:59:01.653Z,1.45
2022-12-08T07:02:04.898Z,1.53
2022-12-08T07:05:07.110Z,1.61
2022-12-08T07:08:11.751Z,1.57
2022-12-08T07:11:18.229Z,1.50
2022-12-08T07:14:25.060Z,1.51
2022-12-08T07:17:27.002Z,1.54
2022-12-08T07:20:28.921Z,1.51
2022-12-08T07:23:30.786Z,1.52
2022-12-08T07:26:32.881Z,1.52
2022-12-08T07:29:34.807Z,1.50
2022-12-08T07:32:38.290Z,1.51
2022-12-08T07:35:42.807Z,1.53
2022-12-08T07:38:47.891Z,1.55
2022-12-08T07:41:50.217Z,1.55
2022-12-08T07:44:52.332Z,1.66
2022-12-08T07:47:54.211Z,1.67
2022-12-08T07:51:02.058Z,1.68
2022-12-08T07:54:04.131Z,1.61
2022-12-08T07:57:06.596Z,1.66
2022-12-08T08:00:09.334Z,1.68
2022-12-08T08:03:14.052Z,1.70
2022-12-08T08:06:16.127Z,1.78
2022-12-08T08:09:18.131Z,1.80
2022-12-08T08:12:31.226Z,1.81
2022-12-08T08:15:34.530Z,1.79
2022-12-08T08:18:37.906Z,1.82
2022-12-08T08:21:47.197Z,1.83
2022-12-08T08:24:49.082Z,1.87
2022-12-08T08:27:51.158Z,1.88
2022-12-08T08:30:53.540Z,1.89
2022-12-08T08:34:05.886Z,1.84
2022-12-08T08:37:08.150Z,1.86
2022-12-08T08:40:10.692Z,1.89
2022-12-08T08:43:34.326Z,1.97
2022-12-08T08:46:38.693Z,1.90
2022-12-08T08:49:41.227Z,1.93
2022-12-08T08:52:44.502Z,1.89
2022-12-08T08:55:46.413Z,1.89
2022-12-08T08:58:52.845Z,1.92
2022-12-08T09:01:55.872Z,1.91
2022-12-08T09:04:57.910Z,2.04
2022-12-08T09:08:00.218Z,1.99
2022-12-08T09:11:02.214Z,2.00
2022-12-08T09:14:04.552Z,1.99
2022-12-08T09:17:07.318Z,2.05
2022-12-08T09:20:09.583Z,2.14
2022-12-08T09:23:11.647Z,2.15
2022-12-08T09:26:13.697Z,2.11
2022-12-08T09:29:17.825Z,2.08
2022-12-08T09:32:20.018Z,2.06
2022-12-08T09:35:22.032Z,2.02
2022-12-08T09:38:24.023Z,1.99
2022-12-08T09:41:48.278Z,1.99
2022-12-08T09:44:59.983Z,1.93
2022-12-08T09:48:15.849Z,1.96
2022-12-08T09:51:17.825Z,1.89
2022-12-08T09:54:30.659Z,1.97
2022-12-08T09:57:32.359Z,2.00
2022-12-08T10:00:34.436Z,2.04
2022-12-08T10:03:36.165Z,2.00
2022-12-08T10:07:02.571Z,2.15
2022-12-08T10:10:22.920Z,2.10
2022-12-08T10:13:52.587Z,2.14
2022-12-08T10:17:01.137Z,2.13
2022-12-08T10:20:16.769Z,2.15
2022-12-08T10:23:36.637Z,2.19
2022-12-08T10:26:38.482Z,2.22
2022-12-08T10:29:41.132Z,2.29
2022-12-08T10:32:46.959Z,2.48
2022-12-08T10:35:51.884Z,2.57
2022-12-08T10:38:53.702Z,2.56
2022-12-08T10:42:17.291Z,2.64
2022-12-08T10:45:24.857Z,2.62
2022-12-08T10:48:31.484Z,2.64
2022-12-08T10:51:33.469Z,2.62
2022-12-08T10:54:38.277Z,2.61
2022-12-08T10:57:40.107Z,2.59
2022-12-08T11:00:41.984Z,2.75
2022-12-08T11:03:59.913Z,2.75
2022-12-08T11:07:03.049Z,2.83
2022-12-08T11:10:05.835Z,2.83
2022-12-08T11:13:27.452Z,2.90
2022-12-08T11:16:29.391Z,2.99
2022-12-08T11:19:31.347Z,3.01
2022-12-08T11:22:42.539Z,2.99
2022-12-08T11:25:44.650Z,3.04
2022-12-08T11:28:47.633Z,3.16
2022-12-08T11:31:55.228Z,3.20
2022-12-08T11:35:06.714Z,3.12
2022-12-08T11:38:22.503Z,3.11
2022-12-08T11:41:30.467Z,3.11
2022-12-08T11:44:58.885Z,3.05
2022-12-08T11:48:19.281Z,3.02
2022-12-08T11:52:00.172Z,2.99
2022-12-08T11:55:25.105Z,2.89
2022-12-08T11:58:29.816Z,2.97
2022-12-08T12:01:31.841Z,3.00
2022-12-08T12:04:49.530Z,3.01
2022-12-08T12:08:18.279Z,3.08
2022-12-08T12:12:00.818Z,3.07
2022-12-08T12:15:30.118Z,3.08
2022-12-08T12:18:41.327Z,2.97
2022-12-08T12:21:46.783Z,3.00
2022-12-08T12:24:51.278Z,3.00
2022-12-08T12:27:57.841Z,2.94
2022-12-08T12:31:16.330Z,2.95
2022-12-08T12:34:30.730Z,2.95
2022-12-08T12:37:42.110Z,2.93
2022-12-08T12:40:44.644Z,2.87
2022-12-08T12:44:12.195Z,2.94
2022-12-08T12:47:35.388Z,3.00
2022-12-08T12:50:44.800Z,2.93
2022-12-08T12:53:49.871Z,2.92
2022-12-08T12:56:51.783Z,2.85
2022-12-08T12:59:55.891Z,2.81
2022-12-08T13:02:59.262Z,2.75
2022-12-08T13:06:01.700Z,2.77
2022-12-08T13:09:04.428Z,2.75
2022-12-08T13:12:22.692Z,2.75
2022-12-08T13:15:24.565Z,2.76
2022-12-08T13:18:34.054Z,2.71
2022-12-08T13:21:39.903Z,2.76
2022-12-08T13:24:44.033Z,2.70
2022-12-08T13:27:54.180Z,2.69
2022-12-08T13:30:57.453Z,2.71
2022-12-08T13:33:59.896Z,2.73
2022-12-08T13:37:01.548Z,2.71
2022-12-08T13:40:16.324Z,2.63
2022-12-08T13:43:45.047Z,2.66
2022-12-08T13:47:31.708Z,2.59
2022-12-08T13:57:49.079Z,2.69
2022-12-08T14:01:15.167Z,2.63
2022-12-08T14:07:43.650Z,2.60
2022-12-08T14:10:48.386Z,2.57
2022-12-08T14:13:51.410Z,2.48
2022-12-08T14:16:56.301Z,2.40
2022-12-08T14:20:06.729Z,2.26
2022-12-08T14:23:08.599Z,2.16
2022-12-08T14:26:11.059Z,2.14
2022-12-08T14:29:41.557Z,2.13
2022-12-08T14:32:46.419Z,2.08
2022-12-08T14:35:53.820Z,2.04
2022-12-08T14:38:56.754Z,1.92
2022-12-08T14:42:00.388Z,1.82
2022-12-08T14:45:09.488Z,1.74
2022-12-08T14:48:23.250Z,1.69
2022-12-08T14:51:32.332Z,1.62
2022-12-08T14:54:34.228Z,1.54
2022-12-08T14:57:36.279Z,1.44
2022-12-08T15:00:46.167Z,1.40
2022-12-08T15:03:51.383Z,1.34
2022-12-08T15:06:58.081Z,1.29
2022-12-08T15:10:27.359Z,1.28
2022-12-08T15:13:29.229Z,1.31
2022-12-08T15:16:37.589Z,1.29
2022-12-08T15:19:40.378Z,1.27
2022-12-08T15:22:43.323Z,1.19
2022-12-08T15:25:45.066Z,1.15
2022-12-08T15:28:46.673Z,1.18
2022-12-08T15:31:48.936Z,1.18
2022-12-08T15:34:51.091Z,1.21
2022-12-08T15:37:52.961Z,1.17
2022-12-08T15:40:55.929Z,1.11
2022-12-08T15:43:57.802Z,1.08
2022-12-08T15:47:00.609Z,1.08
2022-12-08T15:50:04.845Z,1.04
2022-12-08T15:53:10.398Z,0.99
2022-12-08T15:56:29.352Z,0.92
2022-12-08T15:59:31.385Z,0.88
2022-12-08T16:02:56.403Z,0.78
2022-12-08T16:06:31.378Z,0.71
2022-12-08T16:09:39.954Z,0.72
2022-12-08T16:16:28.220Z,0.81
2022-12-08T16:19:29.963Z,0.94
2022-12-08T16:26:18.844Z,1.04
2022-12-08T16:29:20.281Z,0.97
2022-12-08T16:32:23.050Z,0.77
2022-12-08T16:35:24.882Z,0.59
2022-12-08T16:38:26.840Z,0.41
2022-12-08T16:41:47.183Z,0.30
2022-12-08T16:44:48.834Z,0.21
2022-12-08T16:48:01.019Z,0.13
2022-12-08T16:51:04.652Z,0.16
2022-12-08T16:54:06.442Z,0.26
2022-12-08T16:57:08.226Z,0.34
2022-12-08T17:00:13.979Z,0.48
2022-12-08T17:03:16.566Z,0.57
2022-12-08T17:06:18.799Z,0.48
2022-12-08T17:09:20.749Z,0.47
2022-12-08T17:12:22.456Z,0.45
2022-12-08T17:15:25.777Z,0.43
2022-12-08T17:18:27.544Z,0.44
2022-12-08T17:21:29.830Z,0.45
2022-12-08T17:24:31.545Z,0.49
2022-12-08T17:27:33.625Z,0.57
2022-12-08T17:30:35.240Z,0.53
2022-12-08T17:33:36.969Z,0.45
2022-12-08T17:36:38.648Z,0.36
2022-12-08T17:39:40.851Z,0.29
2022-12-08T17:42:42.949Z,0.14
2022-12-08T17:45:47.436Z,0.08
2022-12-08T17:48:49.380Z,0.06
2022-12-08T17:51:53.951Z,0.01
2022-12-08T17:54:55.722Z,-0.03
2022-12-08T17:57:57.756Z,-0.02
2022-12-08T18:00:59.726Z,0.03
2022-12-08T18:04:03.412Z,-0.05
2022-12-08T18:07:05.572Z,-0.12
2022-12-08T18:10:07.991Z,-0.16
2022-12-08T18:13:10.362Z,-0.17
2022-12-08T18:16:12.720Z,-0.14
2022-12-08T18:19:15.448Z,-0.05
2022-12-08T18:22:17.409Z,0.05
2022-12-08T18:25:19.408Z,-0.01
2022-12-08T18:28:21.367Z,-0.13
2022-12-08T18:31:24.329Z,-0.24
2022-12-08T18:34:26.398Z,-0.32
2022-12-08T18:37:28.427Z,-0.32
2022-12-08T18:40:30.473Z,-0.32
2022-12-08T18:43:32.213Z,-0.32
2022-12-08T18:46:33.948Z,-0.32
2022-12-08T18:49:36.454Z,-0.34
2022-12-08T18:52:38.226Z,-0.41
2022-12-08T18:55:40.058Z,-0.49
2022-12-08T18:58:42.066Z,-0.57
2022-12-08T19:01:43.886Z,-0.69
2022-12-08T19:04:45.803Z,-0.77
2022-12-08T19:07:47.602Z,-0.83
2022-12-08T19:10:49.531Z,-0.90
2022-12-08T19:13:52.790Z,-0.95
2022-12-08T19:16:55.069Z,-0.96
2022-12-08T19:19:57.681Z,-0.96
2022-12-08T19:22:59.406Z,-0.93
2022-12-08T19:26:02.570Z,-0.89
2022-12-08T19:29:04.680Z,-0.83
2022-12-08T19:32:06.424Z,-0.79
2022-12-08T19:35:08.477Z,-0.75
2022-12-08T19:38:10.550Z,-0.71
2022-12-08T19:41:36.520Z,-0.69
2022-12-08T19:44:53.086Z,-0.77
2022-12-08T19:47:55.029Z,-0.86
2022-12-08T19:50:57.110Z,-0.93
2022-12-08T19:53:58.707Z,-1.05
2022-12-08T19:57:00.334Z,-1.13
2022-12-08T20:00:02.206Z,-1.17
2022-12-08T20:03:15.560Z,-1.15
2022-12-08T20:06:19.113Z,-1.18
2022-12-08T20:09:21.260Z,-1.26
2022-12-08T20:12:22.947Z,-1.30
2022-12-08T20:15:24.942Z,-1.26
2022-12-08T20:18:28.599Z,-1.21
2022-12-08T20:21:30.555Z,-1.26
2022-12-08T20:24:33.351Z,-1.24
2022-12-08T20:27:36.140Z,-1.28
2022-12-08T20:30:40.343Z,-1.32
2022-12-08T20:33:42.090Z,-1.33
2022-12-08T20:36:44.622Z,-1.35
2022-12-08T20:39:46.196Z,-1.41
2022-12-08T20:42:49.483Z,-1.46
2022-12-08T20:45:51.669Z,-1.44
2022-12-08T20:48:53.661Z,-1.40
2022-12-08T20:51:55.408Z,-1.40
2022-12-08T20:54:57.705Z,-1.40
2022-12-08T20:57:59.707Z,-1.43
2022-12-08T21:01:01.866Z,-1.41
2022-12-08T21:04:03.975Z,-1.44
2022-12-08T21:07:06.124Z,-1.44
2022-12-08T21:10:08.824Z,-1.47
2022-12-08T21:13:11.111Z,-1.47
2022-12-08T21:16:15.057Z,-1.47
2022-12-08T21:19:18.254Z,-1.53
2022-12-08T21:22:21.141Z,-1.52
2022-12-08T21:25:22.986Z,-1.56
2022-12-08T21:28:25.077Z,-1.57
2022-12-08T21:31:29.345Z,-1.59
2022-12-08T21:34:31.915Z,-1.66
2022-12-08T21:37:34.054Z,-1.65
2022-12-08T21:40:35.779Z,-1.73
2022-12-08T21:43:38.132Z,-1.65
2022-12-08T21:46:40.153Z,-1.65
2022-12-08T21:49:42.126Z,-1.69
2022-12-08T21:52:46.481Z,-1.74
2022-12-08T21:55:49.969Z,-1.80
2022-12-08T21:58:51.974Z,-1.81
2022-12-08T22:01:53.827Z,-1.79
2022-12-08T22:04:55.674Z,-1.78
2022-12-08T22:07:58.800Z,-1.82
2022-12-08T22:11:01.167Z,-1.81
2022-12-08T22:14:03.074Z,-1.84
2022-12-08T22:17:05.012Z,-1.84
2022-12-08T22:20:09.504Z,-1.83
2022-12-08T22:23:12.185Z,-1.87
2022-12-08T22:26:14.381Z,-1.85
2022-12-08T22:29:16.757Z,-1.84
2022-12-08T22:32:18.780Z,-1.93
2022-12-08T22:35:20.771Z,-1.99
2022-12-08T22:38:22.852Z,-2.03
2022-12-08T22:41:25.005Z,-2.08
2022-12-08T22:44:26.999Z,-2.19
2022-12-08T22:47:28.999Z,-2.17
2022-12-08T22:50:30.885Z,-2.13
2022-12-08T22:53:33.393Z,-2.14
2022-12-08T22:56:35.765Z,-2.21
2022-12-08T22:59:40.917Z,-2.18
2022-12-08T23:02:43.043Z,-2.13
2022-12-08T23:05:45.079Z,-2.14
2022-12-08T23:08:47.284Z,-2.09
2022-12-08T23:11:49.286Z,-2.02
2022-12-08T23:14:51.058Z,-1.98
2022-12-08T23:17:53.120Z,-1.97
2022-12-08T23:20:54.878Z,-1.99
2022-12-08T23:23:56.685Z,-2.04
2022-12-08T23:26:58.500Z,-2.11
2022-12-08T23:30:00.375Z,-2.13
2022-12-08T23:33:02.602Z,-2.12
2022-12-08T23:36:04.655Z,-2.14
2022-12-08T23:39:06.878Z,-2.19
2022-12-08T23:42:08.837Z,-2.18
2022-12-08T23:45:11.159Z,-2.23
2022-12-08T23:48:13.168Z,-2.28
2022-12-08T23:51:15.576Z,-2.32
2022-12-08T23:54:17.453Z,-2.32
2022-12-08T23:57:19.524Z,-2.32
